createdAt,value
2024-05-09T00:03:07.134Z,101741.01
2024-05-09T00:06:34.255Z,101739.56
2024-05-09T00:10:05.527Z,101736.25
2024-05-09T00:13:34.440Z,101736.52
2024-05-09T00:17:00.907Z,101737.84
2024-05-09T00:20:36.476Z,101743.19
2024-05-09T00:24:07.637Z,101744.50
2024-05-09T00:27:35.088Z,101748.58
2024-05-09T00:31:03.489Z,101751.63
2024-05-09T00:34:30.519Z,101754.85
2024-05-09T00:37:59.084Z,101752.83
2024-05-09T00:41:25.741Z,101753.75
2024-05-09T00:44:53.235Z,101760.69
2024-05-09T00:48:24.583Z,101757.96
2024-05-09T00:51:55.457Z,101756.83
2024-05-09T00:55:25.046Z,101755.36
2024-05-09T00:58:54.763Z,101756.02
2024-05-09T01:02:24.972Z,101756.23
2024-05-09T01:05:57.934Z,101753.75
2024-05-09T01:09:26.411Z,101751.09
2024-05-09T01:12:53.655Z,101756.64
2024-05-09T01:16:21.076Z,101759.60
2024-05-09T01:19:51.080Z,101755.76
2024-05-09T01:23:22.125Z,101755.52
2024-05-09T01:26:49.417Z,101756.29
2024-05-09T01:30:20.984Z,101757.42
2024-05-09T01:33:51.830Z,101755.95
2024-05-09T01:37:19.263Z,101750.27
2024-05-09T01:40:47.011Z,101748.55
2024-05-09T01:44:13.677Z,101748.44
2024-05-09T01:47:40.606Z,101754.58
2024-05-09T01:51:10.663Z,101761.06
2024-05-09T01:54:37.620Z,101758.13
2024-05-09T01:58:04.378Z,101755.95
2024-05-09T02:01:31.486Z,101756.75
2024-05-09T02:05:17.760Z,101755.89
2024-05-09T02:08:47.670Z,101750.09
2024-05-09T02:12:18.010Z,101749.85
2024-05-09T02:15:45.395Z,101749.98
2024-05-09T02:19:11.823Z,101751.52
2024-05-09T02:22:38.748Z,101751.19
2024-05-09T02:26:05.733Z,101750.96
2024-05-09T02:29:32.370Z,101752.82
2024-05-09T02:32:59.475Z,101756.25
2024-05-09T02:36:25.914Z,101757.98
2024-05-09T02:39:52.714Z,101756.44
2024-05-09T02:43:19.497Z,101758.23
2024-05-09T02:46:46.644Z,101759.52
2024-05-09T02:50:16.234Z,101758.70
2024-05-09T02:53:47.468Z,101758.23
2024-05-09T02:57:13.378Z,101759.21
2024-05-09T03:00:42.210Z,101756.67
2024-05-09T03:04:10.894Z,101761.80
2024-05-09T03:07:38.236Z,101761.31
2024-05-09T03:11:05.147Z,101762.17
2024-05-09T03:14:34.295Z,101764.08
2024-05-09T03:18:01.716Z,101767.10
2024-05-09T03:21:29.328Z,101771.50
2024-05-09T03:24:57.088Z,101773.65
2024-05-09T03:28:24.245Z,101775.86
2024-05-09T03:31:51.506Z,101773.48
2024-05-09T03:35:19.618Z,101768.52
2024-05-09T03:38:45.808Z,101772.98
2024-05-09T03:42:11.504Z,101765.71
2024-05-09T03:45:37.203Z,101758.66
2024-05-09T03:49:02.953Z,101753.71
2024-05-09T03:52:28.827Z,101753.17
2024-05-09T03:55:54.593Z,101756.34
2024-05-09T03:59:20.515Z,101756.38
2024-05-09T04:02:48.776Z,101753.78
2024-05-09T04:06:23.081Z,101759.45
2024-05-09T04:09:48.785Z,101756.47
2024-05-09T04:13:14.465Z,101756.84
2024-05-09T04:16:40.190Z,101755.45
2024-05-09T04:20:10.488Z,101759.95
2024-05-09T04:23:36.666Z,101758.83
2024-05-09T04:27:02.568Z,101752.48
2024-05-09T04:30:37.388Z,101752.25
2024-05-09T04:34:06.248Z,101752.52
2024-05-09T04:37:32.238Z,101753.21
2024-05-09T04:40:58.430Z,101747.53
2024-05-09T04:44:24.270Z,101744.65
2024-05-09T04:47:50.154Z,101741.19
2024-05-09T04:51:16.195Z,101739.20
2024-05-09T04:54:42.069Z,101736.89
2024-05-09T04:58:09.358Z,101735.35
2024-05-09T05:01:35.180Z,101734.48
2024-05-09T05:05:01.004Z,101740.15
2024-05-09T05:08:26.892Z,101737.94
2024-05-09T05:11:53.650Z,101736.43
2024-05-09T05:15:19.728Z,101739.65
2024-05-09T05:18:45.602Z,101746.74
2024-05-09T05:22:11.426Z,101742.33
2024-05-09T05:25:37.129Z,101742.49
2024-05-09T05:29:03.117Z,101739.44
2024-05-09T05:32:31.284Z,101741.88
2024-05-09T05:35:57.787Z,101737.33
2024-05-09T05:39:23.565Z,101733.21
2024-05-09T05:42:49.728Z,101736.83
2024-05-09T05:46:15.493Z,101733.17
2024-05-09T05:49:41.391Z,101735.40
2024-05-09T05:53:10.084Z,101728.29
2024-05-09T05:56:36.476Z,101728.21
2024-05-09T06:00:03.990Z,101727.73
2024-05-09T06:03:38.048Z,101733.48
2024-05-09T06:07:04.411Z,101734.23
2024-05-09T06:10:37.586Z,101731.92
2024-05-09T06:14:06.022Z,101729.84
2024-05-09T06:17:31.976Z,101730.55
2024-05-09T06:20:58.071Z,101733.00
2024-05-09T06:24:23.861Z,101739.71
2024-05-09T06:27:49.553Z,101735.92
2024-05-09T06:31:15.335Z,101738.42
2024-05-09T06:34:41.199Z,101736.66
2024-05-09T06:38:09.510Z,101730.38
2024-05-09T06:41:35.689Z,101729.13
2024-05-09T06:45:01.589Z,101727.27
2024-05-09T06:48:27.691Z,101728.41
2024-05-09T06:51:53.608Z,101724.06
2024-05-09T06:55:19.290Z,101725.11
2024-05-09T06:58:45.029Z,101723.42
2024-05-09T07:02:10.903Z,101717.77
2024-05-09T07:05:36.740Z,101718.07
2024-05-09T07:09:02.464Z,101718.52
2024-05-09T07:12:28.323Z,101714.56
2024-05-09T07:15:54.220Z,101708.99
2024-05-09T07:19:20.750Z,101706.60
2024-05-09T07:22:46.580Z,101711.48
2024-05-09T07:26:12.384Z,101710.39
2024-05-09T07:29:38.951Z,101709.75
2024-05-09T07:33:05.284Z,101712.15
2024-05-09T07:36:31.285Z,101717.10
2024-05-09T07:39:57.200Z,101717.44
2024-05-09T07:43:22.898Z,101718.29
2024-05-09T07:47:48.763Z,101720.39
2024-05-09T07:52:23.816Z,101715.36
2024-05-09T07:54:22.018Z,101713.58
2024-05-09T07:57:47.903Z,101709.52
2024-05-09T08:01:13.772Z,101709.51
2024-05-09T08:04:39.725Z,101705.34
2024-05-09T08:08:07.737Z,101703.38
2024-05-09T08:11:35.032Z,101701.73
2024-05-09T08:15:00.839Z,101703.92
2024-05-09T08:18:27.637Z,101695.67
2024-05-09T08:21:53.560Z,101693.36
2024-05-09T08:25:19.414Z,101693.15
2024-05-09T08:28:45.313Z,101694.59
2024-05-09T08:32:13.729Z,101691.65
2024-05-09T08:35:39.727Z,101684.95
2024-05-09T08:39:05.537Z,101687.55
2024-05-09T08:42:37.751Z,101682.08
2024-05-09T08:46:06.038Z,101684.21
2024-05-09T08:49:32.136Z,101679.64
2024-05-09T08:52:58.105Z,101673.77
2024-05-09T08:56:28.615Z,101675.17
2024-05-09T08:59:56.418Z,101676.01
2024-05-09T09:03:27.404Z,101675.38
2024-05-09T09:06:58.275Z,101665.90
2024-05-09T09:10:31.633Z,101664.94
2024-05-09T09:13:58.839Z,101663.50
2024-05-09T09:17:24.661Z,101661.23
2024-05-09T09:20:50.890Z,101667.30
2024-05-09T09:24:16.801Z,101675.02
2024-05-09T09:27:44.578Z,101679.48
2024-05-09T09:31:10.395Z,101677.18
2024-05-09T09:34:36.423Z,101677.80
2024-05-09T09:38:05.730Z,101675.02
2024-05-09T09:41:32.088Z,101676.35
2024-05-09T09:45:04.700Z,101673.41
2024-05-09T09:48:32.510Z,101680.92
2024-05-09T09:52:00.174Z,101675.53
2024-05-09T09:55:26.519Z,101675.73
2024-05-09T09:58:53.696Z,101675.50
2024-05-09T10:02:19.850Z,101668.66
2024-05-09T10:05:47.524Z,101669.21
2024-05-09T10:09:16.258Z,101665.52
2024-05-09T10:12:52.512Z,101666.08
2024-05-09T10:16:22.600Z,101664.98
2024-05-09T10:19:48.767Z,101665.39
2024-05-09T10:23:28.217Z,101667.23
2024-05-09T10:26:54.620Z,101663.34
2024-05-09T10:30:33.455Z,101660.67
2024-05-09T10:34:03.388Z,101664.32
2024-05-09T10:37:30.006Z,101660.20
2024-05-09T10:41:00.662Z,101659.27
2024-05-09T10:44:26.433Z,101663.67
2024-05-09T10:47:52.444Z,101665.69
2024-05-09T10:51:19.321Z,101664.79
2024-05-09T10:54:49.348Z,101661.19
2024-05-09T10:58:19.959Z,101659.41
2024-05-09T11:01:46.176Z,101647.16
2024-05-09T11:05:13.111Z,101637.80
2024-05-09T11:08:39.651Z,101638.59
2024-05-09T11:12:06.506Z,101642.52
2024-05-09T11:15:40.829Z,101629.54
2024-05-09T11:19:12.408Z,101626.55
2024-05-09T11:22:38.319Z,101628.63
2024-05-09T11:26:05.541Z,101616.45
2024-05-09T11:29:39.860Z,101618.30
2024-05-09T11:33:06.241Z,101620.91
2024-05-09T11:36:32.153Z,101615.31
2024-05-09T11:39:58.123Z,101611.58
2024-05-09T11:43:23.996Z,101600.89
2024-05-09T11:46:49.854Z,101598.33
2024-05-09T11:50:22.671Z,101599.27
2024-05-09T11:53:55.296Z,101596.99
2024-05-09T11:57:21.292Z,101595.39
2024-05-09T12:00:47.459Z,101593.05
2024-05-09T12:04:13.471Z,101588.98
2024-05-09T12:07:39.514Z,101587.38
2024-05-09T12:11:05.769Z,101584.55
2024-05-09T12:14:31.692Z,101585.65
2024-05-09T12:18:00.028Z,101588.32
2024-05-09T12:21:27.710Z,101587.27
2024-05-09T12:24:55.676Z,101586.02
2024-05-09T12:28:22.213Z,101582.27
2024-05-09T12:31:48.158Z,101578.70
2024-05-09T12:35:13.979Z,101571.56
2024-05-09T12:38:40.812Z,101566.56
2024-05-09T12:42:07.105Z,101566.07
2024-05-09T12:45:32.974Z,101557.59
2024-05-09T12:48:59.203Z,101557.92
2024-05-09T12:52:25.378Z,101550.10
2024-05-09T12:55:56.897Z,101546.67
2024-05-09T12:59:26.293Z,101538.65
2024-05-09T13:02:52.123Z,101534.52
2024-05-09T13:06:17.920Z,101533.05
2024-05-09T13:09:43.811Z,101528.60
2024-05-09T13:13:11.448Z,101526.09
2024-05-09T13:16:37.547Z,101525.08
2024-05-09T13:20:04.403Z,101523.84
2024-05-09T13:23:31.449Z,101517.64
2024-05-09T13:26:57.340Z,101510.69
2024-05-09T13:30:29.777Z,101508.83
2024-05-09T13:34:04.316Z,101506.88
2024-05-09T13:37:30.322Z,101501.70
2024-05-09T13:40:56.087Z,101498.92
2024-05-09T13:44:22.348Z,101493.98
2024-05-09T13:47:48.423Z,101492.61
2024-05-09T13:51:14.470Z,101489.10
2024-05-09T13:54:40.292Z,101482.33
2024-05-09T13:58:06.811Z,101474.99
2024-05-09T14:01:32.880Z,101470.96
2024-05-09T14:04:58.951Z,101464.48
2024-05-09T14:08:24.972Z,101462.56
2024-05-09T14:11:50.804Z,101457.48
2024-05-09T14:15:16.667Z,101455.42
2024-05-09T14:18:42.564Z,101451.58
2024-05-09T14:22:09.039Z,101445.58
2024-05-09T14:25:38.692Z,101436.05
2024-05-09T14:29:07.393Z,101437.55
2024-05-09T14:32:33.330Z,101430.72
2024-05-09T14:35:59.605Z,101427.80
2024-05-09T14:39:25.395Z,101421.55
2024-05-09T14:42:51.291Z,101421.86
2024-05-09T14:46:17.189Z,101420.86
2024-05-09T14:49:43.175Z,101420.39
2024-05-09T14:53:10.285Z,101416.64
2024-05-09T14:56:36.364Z,101414.69
2024-05-09T15:00:02.803Z,101403.75
2024-05-09T15:03:29.840Z,101399.81
2024-05-09T15:06:56.505Z,101399.66
2024-05-09T15:10:31.099Z,101393.14
2024-05-09T15:14:00.620Z,101387.54
2024-05-09T15:17:26.527Z,101385.67
2024-05-09T15:20:52.490Z,101380.12
2024-05-09T15:24:18.441Z,101379.88
2024-05-09T15:27:45.276Z,101379.94
2024-05-09T15:31:11.085Z,101375.92
2024-05-09T15:34:36.901Z,101368.18
2024-05-09T15:38:05.802Z,101369.65
2024-05-09T15:41:31.547Z,101364.09
2024-05-09T15:44:57.422Z,101362.80
2024-05-09T15:48:23.518Z,101359.76
2024-05-09T15:51:49.367Z,101357.93
2024-05-09T15:55:15.548Z,101350.42
2024-05-09T15:58:41.419Z,101348.79
2024-05-09T16:02:07.687Z,101347.55
2024-05-09T16:05:33.873Z,101345.90
2024-05-09T16:09:00.310Z,101340.93
2024-05-09T16:12:26.138Z,101339.02
2024-05-09T16:15:52.069Z,101335.84
2024-05-09T16:19:18.134Z,101331.77
2024-05-09T16:22:43.826Z,101330.75
2024-05-09T16:26:09.602Z,101333.88
2024-05-09T16:29:35.305Z,101327.42
2024-05-09T16:33:01.112Z,101327.98
2024-05-09T16:36:27.188Z,101326.62
2024-05-09T16:39:52.904Z,101327.07
2024-05-09T16:43:19.048Z,101327.48
2024-05-09T16:46:45.035Z,101325.73
2024-05-09T16:50:15.797Z,101325.96
2024-05-09T16:53:44.920Z,101326.89
2024-05-09T16:57:10.713Z,101325.87
2024-05-09T17:00:41.462Z,101321.89
2024-05-09T17:04:10.148Z,101324.09
2024-05-09T17:07:36.173Z,101323.08
2024-05-09T17:11:02.236Z,101321.02
2024-05-09T17:14:28.127Z,101317.88
2024-05-09T17:17:53.967Z,101319.35
2024-05-09T17:21:20.003Z,101317.98
2024-05-09T17:24:45.707Z,101319.13
2024-05-09T17:28:12.412Z,101316.36
2024-05-09T17:31:38.557Z,101314.27
2024-05-09T17:35:04.752Z,101313.67
2024-05-09T17:38:30.647Z,101313.23
2024-05-09T17:41:56.345Z,101315.45
2024-05-09T17:45:22.833Z,101312.49
2024-05-09T17:48:48.596Z,101310.97
2024-05-09T17:52:14.814Z,101312.23
2024-05-09T17:55:41.365Z,101313.17
2024-05-09T17:59:09.921Z,101316.41
2024-05-09T18:02:35.991Z,101319.06
2024-05-09T18:06:02.077Z,101318.87
2024-05-09T18:09:28.008Z,101322.00
2024-05-09T18:12:53.777Z,101318.98
2024-05-09T18:16:20.027Z,101322.29
2024-05-09T18:19:45.894Z,101320.11
2024-05-09T18:23:12.812Z,101315.63
2024-05-09T18:26:39.074Z,101322.55
2024-05-09T18:30:09.372Z,101320.36
2024-05-09T18:33:35.663Z,101320.60
2024-05-09T18:37:04.324Z,101327.35
2024-05-09T18:40:34.621Z,101330.05
2024-05-09T18:44:02.774Z,101333.95
2024-05-09T18:47:28.641Z,101333.39
2024-05-09T18:50:54.551Z,101335.31
2024-05-09T18:54:20.800Z,101330.93
2024-05-09T18:57:46.690Z,101334.80
2024-05-09T19:01:13.123Z,101331.31
2024-05-09T19:04:39.236Z,101338.55
2024-05-09T19:08:05.894Z,101340.83
2024-05-09T19:11:31.708Z,101344.48
2024-05-09T19:14:57.665Z,101349.65
2024-05-09T19:18:23.449Z,101351.88
2024-05-09T19:21:49.395Z,101352.36
2024-05-09T19:25:15.184Z,101350.42
2024-05-09T19:28:41.015Z,101354.63
2024-05-09T19:32:07.868Z,101353.73
2024-05-09T19:35:33.708Z,101358.67
2024-05-09T19:39:00.094Z,101362.02
2024-05-09T19:42:27.333Z,101363.64
2024-05-09T19:45:53.005Z,101361.38
2024-05-09T19:49:18.994Z,101365.07
2024-05-09T19:52:45.132Z,101362.11
2024-05-09T19:56:10.887Z,101364.91
2024-05-09T19:59:36.718Z,101365.93
2024-05-09T20:03:02.685Z,101369.98
2024-05-09T20:06:30.212Z,101368.75
2024-05-09T20:09:55.977Z,101368.59
2024-05-09T20:13:21.944Z,101368.59
2024-05-09T20:16:48.679Z,101366.50
2024-05-09T20:20:24.567Z,101363.38
2024-05-09T20:23:59.084Z,101366.58
2024-05-09T20:27:24.768Z,101361.92
2024-05-09T20:30:50.546Z,101362.22
2024-05-09T20:34:16.327Z,101362.66
2024-05-09T20:37:42.155Z,101360.09
2024-05-09T20:41:08.215Z,101358.92
2024-05-09T20:44:34.495Z,101359.34
2024-05-09T20:48:01.059Z,101359.40
2024-05-09T20:51:29.902Z,101362.83
2024-05-09T20:54:56.342Z,101360.29
2024-05-09T20:58:22.757Z,101361.75
2024-05-09T21:01:50.040Z,101361.64
2024-05-09T21:05:18.833Z,101358.86
2024-05-09T21:08:44.937Z,101363.71
2024-05-09T21:12:10.879Z,101362.44
2024-05-09T21:15:36.845Z,101363.66
2024-05-09T21:19:02.938Z,101363.95
2024-05-09T21:22:28.823Z,101365.81
2024-05-09T21:25:54.620Z,101363.50
2024-05-09T21:29:20.698Z,101362.23
2024-05-09T21:32:46.656Z,101366.58
2024-05-09T21:36:12.615Z,101366.54
2024-05-09T21:39:38.567Z,101363.67
2024-05-09T21:43:05.041Z,101359.98
2024-05-09T21:46:30.997Z,101361.02
2024-05-09T21:49:57.125Z,101362.95
2024-05-09T21:53:22.952Z,101357.36
2024-05-09T21:56:48.627Z,101361.75
2024-05-09T22:00:28.096Z,101361.95
2024-05-09T22:04:01.201Z,101361.08
2024-05-09T22:07:27.165Z,101362.44
2024-05-09T22:10:53.011Z,101361.20
2024-05-09T22:14:19.806Z,101363.15
2024-05-09T22:17:45.981Z,101364.02
2024-05-09T22:21:11.869Z,101366.14
2024-05-09T22:24:37.843Z,101363.06
2024-05-09T22:28:04.541Z,101358.56
2024-05-09T22:31:30.627Z,101359.32
2024-05-09T22:34:56.721Z,101363.56
2024-05-09T22:38:25.935Z,101361.24
2024-05-09T22:41:51.926Z,101362.78
2024-05-09T22:45:17.824Z,101361.02
2024-05-09T22:48:43.768Z,101363.45
2024-05-09T22:52:09.956Z,101362.40
2024-05-09T22:55:35.841Z,101362.40
2024-05-09T22:59:02.084Z,101360.34
2024-05-09T23:02:28.086Z,101358.27
2024-05-09T23:05:53.851Z,101358.81
2024-05-09T23:09:19.566Z,101355.34
2024-05-09T23:12:45.600Z,101352.77
2024-05-09T23:16:11.734Z,101351.10
2024-05-09T23:19:37.647Z,101350.29
2024-05-09T23:23:03.674Z,101347.42
2024-05-09T23:26:29.528Z,101343.28
2024-05-09T23:29:55.196Z,101343.85
2024-05-09T23:33:21.187Z,101343.33
2024-05-09T23:36:47.023Z,101340.16
2024-05-09T23:40:18.497Z,101335.80
2024-05-09T23:43:45.080Z,101333.82
2024-05-09T23:47:11.141Z,101338.60
2024-05-09T23:50:38.912Z,101340.55
2024-05-09T23:54:08.274Z,101340.02
2024-05-09T23:57:34.039Z,101333.76
